Weather at Sechelt (St. Mary's Hospital) Heliport

Public forecast

Using degrees Celsius for public forecast. Weather courtesy of forecast.io.

Closest aviation weather report (METAR) to Sechelt (St. Mary's Hospital) Heliport

Report is more than 6 hours old.

Closest report is Nanaimo Airport, 25.7 nm (47.7 km) S. Retrieved 2020/10/22 04:00 UTC (8 hours ago):

CYCD 220400Z 25003KT 15SM FEW040 06/01 A3026 RMK SC1 LAST STFD OBS/NEXT 221300Z SLP248

Closest aviation forecast (TAF) to Sechelt (St. Mary's Hospital) Heliport

Forecast is more than 6 hours old.

Closest forecast is Nanaimo Airport, 25.7 nm (47.7 km) S. Retrieved 2020-10-22 00:00 UTC (12 hours ago):

TAF CYCD 212338Z 2200/2204 27008KT P6SM FEW040 RMK NXT FCST WILL BE ISSUED AT 221445Z